sensor_id;sensor_type;location;lat;lon;timestamp;temperature;humidity
9760;DHT22;4919;48.792;9.202;2023-02-28T00:01:58;0.80;1.00
9760;DHT22;4919;48.792;9.202;2023-02-28T00:04:43;0.80;1.30
9760;DHT22;4919;48.792;9.202;2023-02-28T00:07:28;0.80;1.00
9760;DHT22;4919;48.792;9.202;2023-02-28T00:10:15;0.70;1.00
9760;DHT22;4919;48.792;9.202;2023-02-28T00:13:05;0.80;1.00
9760;DHT22;4919;48.792;9.202;2023-02-28T00:16:02;0.80;1.00
9760;DHT22;4919;48.792;9.202;2023-02-28T00:18:47;0.80;1.00
9760;DHT22;4919;48.792;9.202;2023-02-28T00:21:32;0.80;1.00
9760;DHT22;4919;48.792;9.202;2023-02-28T00:24:17;0.80;1.00
9760;DHT22;4919;48.792;9.202;2023-02-28T00:27:02;0.80;1.00
9760;DHT22;4919;48.792;9.202;2023-02-28T00:29:47;0.80;1.00
9760;DHT22;4919;48.792;9.202;2023-02-28T00:32:32;0.80;1.00
9760;DHT22;4919;48.792;9.202;2023-02-28T00:35:17;0.80;1.00
9760;DHT22;4919;48.792;9.202;2023-02-28T00:38:02;0.80;1.00
9760;DHT22;4919;48.792;9.202;2023-02-28T00:40:46;0.80;1.00
9760;DHT22;4919;48.792;9.202;2023-02-28T00:43:37;0.80;1.00
9760;DHT22;4919;48.792;9.202;2023-02-28T00:46:22;0.90;1.00
9760;DHT22;4919;48.792;9.202;2023-02-28T00:49:07;0.90;1.00
9760;DHT22;4919;48.792;9.202;2023-02-28T00:51:52;0.90;1.00
9760;DHT22;4919;48.792;9.202;2023-02-28T00:54:37;0.90;1.00
9760;DHT22;4919;48.792;9.202;2023-02-28T00:57:23;0.90;1.00
9760;DHT22;4919;48.792;9.202;2023-02-28T01:00:08;0.90;1.00
9760;DHT22;4919;48.792;9.202;2023-02-28T01:02:53;0.90;1.00
9760;DHT22;4919;48.792;9.202;2023-02-28T01:05:38;0.90;1.00
9760;DHT22;4919;48.792;9.202;2023-02-28T01:08:23;0.90;1.00
9760;DHT22;4919;48.792;9.202;2023-02-28T01:11:10;0.80;1.00
9760;DHT22;4919;48.792;9.202;2023-02-28T01:13:55;0.70;1.00
9760;DHT22;4919;48.792;9.202;2023-02-28T01:16:40;0.80;1.00
9760;DHT22;4919;48.792;9.202;2023-02-28T01:19:25;0.80;1.00
9760;DHT22;4919;48.792;9.202;2023-02-28T01:22:09;0.80;1.00
9760;DHT22;4919;48.792;9.202;2023-02-28T01:24:54;0.70;1.00
9760;DHT22;4919;48.792;9.202;2023-02-28T01:27:39;0.70;1.00
9760;DHT22;4919;48.792;9.202;2023-02-28T01:30:24;0.60;1.00
9760;DHT22;4919;48.792;9.202;2023-02-28T01:33:08;0.60;1.00
9760;DHT22;4919;48.792;9.202;2023-02-28T01:36:13;0.60;1.00
9760;DHT22;4919;48.792;9.202;2023-02-28T01:38:57;0.50;1.10
9760;DHT22;4919;48.792;9.202;2023-02-28T01:41:42;0.60;2.70
9760;DHT22;4919;48.792;9.202;2023-02-28T01:44:57;0.60;3.00
9760;DHT22;4919;48.792;9.202;2023-02-28T01:47:43;0.50;5.70
9760;DHT22;4919;48.792;9.202;2023-02-28T01:50:31;0.50;6.50
9760;DHT22;4919;48.792;9.202;2023-02-28T01:53:23;0.40;12.10
9760;DHT22;4919;48.792;9.202;2023-02-28T01:56:11;0.50;27.60
9760;DHT22;4919;48.792;9.202;2023-02-28T01:58:57;0.40;29.10
9760;DHT22;4919;48.792;9.202;2023-02-28T02:01:42;0.40;27.50
9760;DHT22;4919;48.792;9.202;2023-02-28T02:04:32;0.30;24.70
9760;DHT22;4919;48.792;9.202;2023-02-28T02:07:17;0.20;31.90
9760;DHT22;4919;48.792;9.202;2023-02-28T02:10:27;0.20;32.20
9760;DHT22;4919;48.792;9.202;2023-02-28T02:13:34;0.00;35.40
9760;DHT22;4919;48.792;9.202;2023-02-28T02:16:32;-0.10;40.20
9760;DHT22;4919;48.792;9.202;2023-02-28T02:28:37;-0.10;93.10
9760;DHT22;4919;48.792;9.202;2023-02-28T02:37:51;-0.20;96.70
9760;DHT22;4919;48.792;9.202;2023-02-28T02:40:43;-0.30;97.40
9760;DHT22;4919;48.792;9.202;2023-02-28T02:43:46;-0.30;99.90
9760;DHT22;4919;48.792;9.202;2023-02-28T02:46:35;-0.30;99.90
9760;DHT22;4919;48.792;9.202;2023-02-28T02:49:25;-0.40;99.90
9760;DHT22;4919;48.792;9.202;2023-02-28T02:52:12;-0.50;99.90
9760;DHT22;4919;48.792;9.202;2023-02-28T02:54:59;-0.60;99.90
9760;DHT22;4919;48.792;9.202;2023-02-28T02:58:00;-0.60;99.90
9760;DHT22;4919;48.792;9.202;2023-02-28T03:00:51;-0.80;99.90
9760;DHT22;4919;48.792;9.202;2023-02-28T03:03:37;-0.80;99.90
9760;DHT22;4919;48.792;9.202;2023-02-28T03:06:21;-0.90;99.90
9760;DHT22;4919;48.792;9.202;2023-02-28T03:09:06;-1.00;99.90
9760;DHT22;4919;48.792;9.202;2023-02-28T03:11:54;-1.00;99.90
9760;DHT22;4919;48.792;9.202;2023-02-28T03:24:03;-1.10;99.90
9760;DHT22;4919;48.792;9.202;2023-02-28T03:26:58;-1.10;99.90
9760;DHT22;4919;48.792;9.202;2023-02-28T03:33:05;-1.20;99.90
9760;DHT22;4919;48.792;9.202;2023-02-28T03:35:55;-1.20;99.90
9760;DHT22;4919;48.792;9.202;2023-02-28T03:39:04;-1.30;99.90
9760;DHT22;4919;48.792;9.202;2023-02-28T03:41:56;-1.30;99.90
9760;DHT22;4919;48.792;9.202;2023-02-28T03:44:58;-1.30;99.90
9760;DHT22;4919;48.792;9.202;2023-02-28T03:48:01;-1.40;99.90
9760;DHT22;4919;48.792;9.202;2023-02-28T03:50:54;-1.40;99.90
9760;DHT22;4919;48.792;9.202;2023-02-28T03:53:48;-1.50;99.90
9760;DHT22;4919;48.792;9.202;2023-02-28T03:56:56;-1.40;99.90
9760;DHT22;4919;48.792;9.202;2023-02-28T03:59:47;-1.40;99.90
9760;DHT22;4919;48.792;9.202;2023-02-28T04:02:32;-1.40;99.90
9760;DHT22;4919;48.792;9.202;2023-02-28T04:05:19;-1.50;99.90
9760;DHT22;4919;48.792;9.202;2023-02-28T04:08:06;-1.50;99.90
9760;DHT22;4919;48.792;9.202;2023-02-28T04:11:06;-1.60;99.90
9760;DHT22;4919;48.792;9.202;2023-02-28T04:13:51;-1.60;99.90
9760;DHT22;4919;48.792;9.202;2023-02-28T04:16:38;-1.60;99.90
9760;DHT22;4919;48.792;9.202;2023-02-28T04:19:23;-1.60;99.90
9760;DHT22;4919;48.792;9.202;2023-02-28T04:22:09;-1.60;99.90
9760;DHT22;4919;48.792;9.202;2023-02-28T04:24:53;-1.60;99.90
9760;DHT22;4919;48.792;9.202;2023-02-28T04:27:38;-1.60;99.90
9760;DHT22;4919;48.792;9.202;2023-02-28T04:30:23;-1.70;99.90
9760;DHT22;4919;48.792;9.202;2023-02-28T04:33:08;-1.70;99.90
9760;DHT22;4919;48.792;9.202;2023-02-28T04:36:04;-1.80;99.90
9760;DHT22;4919;48.792;9.202;2023-02-28T04:38:49;-1.90;99.90
9760;DHT22;4919;48.792;9.202;2023-02-28T04:41:34;-1.90;99.90
9760;DHT22;4919;48.792;9.202;2023-02-28T04:44:19;-1.90;99.90
9760;DHT22;4919;48.792;9.202;2023-02-28T04:47:04;-1.80;99.90
9760;DHT22;4919;48.792;9.202;2023-02-28T04:49:48;-1.90;99.90
9760;DHT22;4919;48.792;9.202;2023-02-28T04:52:33;-1.90;99.90
9760;DHT22;4919;48.792;9.202;2023-02-28T04:55:18;-1.90;99.90
9760;DHT22;4919;48.792;9.202;2023-02-28T04:58:03;-1.90;99.90
9760;DHT22;4919;48.792;9.202;2023-02-28T05:00:48;-1.90;99.90
9760;DHT22;4919;48.792;9.202;2023-02-28T05:03:32;-1.90;99.90
9760;DHT22;4919;48.792;9.202;2023-02-28T05:06:18;-1.90;99.90
9760;DHT22;4919;48.792;9.202;2023-02-28T05:09:03;-2.00;99.90
9760;DHT22;4919;48.792;9.202;2023-02-28T05:11:48;-2.00;99.90
9760;DHT22;4919;48.792;9.202;2023-02-28T05:14:33;-2.00;99.90
9760;DHT22;4919;48.792;9.202;2023-02-28T05:17:18;-2.20;99.90
9760;DHT22;4919;48.792;9.202;2023-02-28T05:20:03;-2.10;99.90
9760;DHT22;4919;48.792;9.202;2023-02-28T05:22:49;-2.10;99.90
9760;DHT22;4919;48.792;9.202;2023-02-28T05:25:33;-2.20;99.90
9760;DHT22;4919;48.792;9.202;2023-02-28T05:28:18;-2.10;99.90
9760;DHT22;4919;48.792;9.202;2023-02-28T05:31:03;-2.20;99.90
9760;DHT22;4919;48.792;9.202;2023-02-28T05:33:48;-2.20;99.90
9760;DHT22;4919;48.792;9.202;2023-02-28T05:36:33;-2.20;99.90
9760;DHT22;4919;48.792;9.202;2023-02-28T05:39:18;-2.20;99.90
9760;DHT22;4919;48.792;9.202;2023-02-28T05:42:03;-2.20;99.90
9760;DHT22;4919;48.792;9.202;2023-02-28T05:44:48;-2.20;99.90
9760;DHT22;4919;48.792;9.202;2023-02-28T05:47:33;-2.30;99.90
9760;DHT22;4919;48.792;9.202;2023-02-28T05:50:18;-2.20;99.90
9760;DHT22;4919;48.792;9.202;2023-02-28T05:53:03;-2.20;99.90
9760;DHT22;4919;48.792;9.202;2023-02-28T05:55:48;-2.30;99.90
9760;DHT22;4919;48.792;9.202;2023-02-28T05:58:32;-2.30;99.90
9760;DHT22;4919;48.792;9.202;2023-02-28T06:04:21;-2.30;99.90
9760;DHT22;4919;48.792;9.202;2023-02-28T06:07:05;-2.30;99.90
9760;DHT22;4919;48.792;9.202;2023-02-28T06:09:50;-2.30;99.90
9760;DHT22;4919;48.792;9.202;2023-02-28T06:12:36;-2.30;99.90
9760;DHT22;4919;48.792;9.202;2023-02-28T06:15:20;-2.30;99.90
9760;DHT22;4919;48.792;9.202;2023-02-28T06:18:05;-2.30;99.90
9760;DHT22;4919;48.792;9.202;2023-02-28T06:20:54;-2.30;99.90
9760;DHT22;4919;48.792;9.202;2023-02-28T06:23:39;-2.30;99.90
9760;DHT22;4919;48.792;9.202;2023-02-28T06:26:24;-2.20;99.90
9760;DHT22;4919;48.792;9.202;2023-02-28T06:29:09;-2.20;99.90
9760;DHT22;4919;48.792;9.202;2023-02-28T06:31:53;-2.20;99.90
9760;DHT22;4919;48.792;9.202;2023-02-28T06:34:38;-2.10;99.90
9760;DHT22;4919;48.792;9.202;2023-02-28T06:37:23;-2.00;99.90
9760;DHT22;4919;48.792;9.202;2023-02-28T06:40:10;-2.00;99.90
9760;DHT22;4919;48.792;9.202;2023-02-28T06:42:55;-1.90;99.90
9760;DHT22;4919;48.792;9.202;2023-02-28T06:45:43;-1.90;99.90
9760;DHT22;4919;48.792;9.202;2023-02-28T06:48:28;-1.70;99.90
9760;DHT22;4919;48.792;9.202;2023-02-28T06:51:18;-1.70;99.90
9760;DHT22;4919;48.792;9.202;2023-02-28T06:54:04;-1.70;99.90
9760;DHT22;4919;48.792;9.202;2023-02-28T06:56:49;-1.60;99.90
9760;DHT22;4919;48.792;9.202;2023-02-28T06:59:34;-1.50;99.90
9760;DHT22;4919;48.792;9.202;2023-02-28T07:02:19;-1.40;99.90
9760;DHT22;4919;48.792;9.202;2023-02-28T07:05:05;-1.40;99.90
9760;DHT22;4919;48.792;9.202;2023-02-28T07:07:50;-1.30;99.90
9760;DHT22;4919;48.792;9.202;2023-02-28T07:10:37;-1.20;99.90
9760;DHT22;4919;48.792;9.202;2023-02-28T07:13:22;-1.20;99.90
9760;DHT22;4919;48.792;9.202;2023-02-28T07:16:10;-1.00;99.90
9760;DHT22;4919;48.792;9.202;2023-02-28T07:18:55;-1.00;99.90
9760;DHT22;4919;48.792;9.202;2023-02-28T07:21:40;-0.90;99.90
9760;DHT22;4919;48.792;9.202;2023-02-28T07:24:25;-0.70;99.90
9760;DHT22;4919;48.792;9.202;2023-02-28T07:27:10;-0.60;99.90
9760;DHT22;4919;48.792;9.202;2023-02-28T07:29:54;-0.50;99.90
9760;DHT22;4919;48.792;9.202;2023-02-28T07:32:39;-0.40;99.90
9760;DHT22;4919;48.792;9.202;2023-02-28T07:35:24;-0.30;99.90
9760;DHT22;4919;48.792;9.202;2023-02-28T07:38:09;-0.10;99.90
9760;DHT22;4919;48.792;9.202;2023-02-28T07:40:54;0.00;99.90
9760;DHT22;4919;48.792;9.202;2023-02-28T07:43:39;0.30;99.90
9760;DHT22;4919;48.792;9.202;2023-02-28T07:46:24;0.40;99.90
9760;DHT22;4919;48.792;9.202;2023-02-28T07:49:09;0.50;91.60
9760;DHT22;4919;48.792;9.202;2023-02-28T07:51:54;0.70;69.30
9760;DHT22;4919;48.792;9.202;2023-02-28T07:54:39;0.70;30.90
9760;DHT22;4919;48.792;9.202;2023-02-28T07:57:24;0.70;13.70
9760;DHT22;4919;48.792;9.202;2023-02-28T08:00:10;0.80;1.00
9760;DHT22;4919;48.792;9.202;2023-02-28T08:02:55;1.00;1.00
9760;DHT22;4919;48.792;9.202;2023-02-28T08:05:40;1.10;1.00
9760;DHT22;4919;48.792;9.202;2023-02-28T08:08:25;1.60;1.00
9760;DHT22;4919;48.792;9.202;2023-02-28T08:11:10;1.90;1.00
9760;DHT22;4919;48.792;9.202;2023-02-28T08:13:55;2.00;1.00
9760;DHT22;4919;48.792;9.202;2023-02-28T08:16:40;2.10;1.00
9760;DHT22;4919;48.792;9.202;2023-02-28T08:19:25;2.20;1.00
9760;DHT22;4919;48.792;9.202;2023-02-28T08:22:10;2.40;1.00
9760;DHT22;4919;48.792;9.202;2023-02-28T08:24:55;2.70;1.00
9760;DHT22;4919;48.792;9.202;2023-02-28T08:27:39;2.90;1.00
9760;DHT22;4919;48.792;9.202;2023-02-28T08:30:24;2.90;1.00
9760;DHT22;4919;48.792;9.202;2023-02-28T08:33:09;3.00;1.00
9760;DHT22;4919;48.792;9.202;2023-02-28T08:35:57;3.30;1.00
9760;DHT22;4919;48.792;9.202;2023-02-28T08:38:42;3.40;1.00
9760;DHT22;4919;48.792;9.202;2023-02-28T08:41:27;3.50;1.00
9760;DHT22;4919;48.792;9.202;2023-02-28T08:44:12;3.70;1.00
9760;DHT22;4919;48.792;9.202;2023-02-28T08:46:56;3.70;1.00
9760;DHT22;4919;48.792;9.202;2023-02-28T08:49:41;3.80;1.00
9760;DHT22;4919;48.792;9.202;2023-02-28T08:52:26;3.70;1.00
9760;DHT22;4919;48.792;9.202;2023-02-28T08:55:11;3.90;1.00
9760;DHT22;4919;48.792;9.202;2023-02-28T08:57:56;3.70;1.00
9760;DHT22;4919;48.792;9.202;2023-02-28T09:00:41;3.90;1.00
9760;DHT22;4919;48.792;9.202;2023-02-28T09:03:26;3.90;1.00
9760;DHT22;4919;48.792;9.202;2023-02-28T09:06:11;4.10;1.00
9760;DHT22;4919;48.792;9.202;2023-02-28T09:08:57;4.20;1.00
9760;DHT22;4919;48.792;9.202;2023-02-28T09:11:42;4.40;1.00
9760;DHT22;4919;48.792;9.202;2023-02-28T09:14:27;4.70;1.00
9760;DHT22;4919;48.792;9.202;2023-02-28T09:17:12;4.50;1.00
9760;DHT22;4919;48.792;9.202;2023-02-28T09:19:57;4.70;1.00
9760;DHT22;4919;48.792;9.202;2023-02-28T09:22:42;4.70;1.00
9760;DHT22;4919;48.792;9.202;2023-02-28T09:25:27;5.00;1.00
9760;DHT22;4919;48.792;9.202;2023-02-28T09:28:11;5.20;1.00
9760;DHT22;4919;48.792;9.202;2023-02-28T09:30:56;5.10;1.00
9760;DHT22;4919;48.792;9.202;2023-02-28T09:33:42;5.30;1.00
9760;DHT22;4919;48.792;9.202;2023-02-28T09:36:26;5.30;1.00
9760;DHT22;4919;48.792;9.202;2023-02-28T09:39:12;5.40;1.00
9760;DHT22;4919;48.792;9.202;2023-02-28T09:41:57;5.20;1.00
9760;DHT22;4919;48.792;9.202;2023-02-28T09:44:44;5.30;1.00
9760;DHT22;4919;48.792;9.202;2023-02-28T09:47:34;5.60;1.00
9760;DHT22;4919;48.792;9.202;2023-02-28T09:56:15;5.80;1.00
9760;DHT22;4919;48.792;9.202;2023-02-28T10:02:04;5.60;1.00
9760;DHT22;4919;48.792;9.202;2023-02-28T10:08:14;5.90;1.00
9760;DHT22;4919;48.792;9.202;2023-02-28T10:11:06;6.00;1.00
9760;DHT22;4919;48.792;9.202;2023-02-28T10:14:00;6.30;1.00
9760;DHT22;4919;48.792;9.202;2023-02-28T10:23:08;5.60;1.00
9760;DHT22;4919;48.792;9.202;2023-02-28T10:26:22;6.10;1.00
9760;DHT22;4919;48.792;9.202;2023-02-28T10:29:08;6.90;1.00
9760;DHT22;4919;48.792;9.202;2023-02-28T10:31:53;6.90;1.00
9760;DHT22;4919;48.792;9.202;2023-02-28T10:34:38;6.90;1.00
9760;DHT22;4919;48.792;9.202;2023-02-28T10:37:23;6.30;1.00
9760;DHT22;4919;48.792;9.202;2023-02-28T10:40:33;6.30;1.00
9760;DHT22;4919;48.792;9.202;2023-02-28T10:43:20;6.30;1.00
9760;DHT22;4919;48.792;9.202;2023-02-28T10:49:11;6.60;1.00
9760;DHT22;4919;48.792;9.202;2023-02-28T10:51:59;6.30;1.00
9760;DHT22;4919;48.792;9.202;2023-02-28T10:54:44;6.30;1.00
9760;DHT22;4919;48.792;9.202;2023-02-28T10:57:30;6.20;1.00
9760;DHT22;4919;48.792;9.202;2023-02-28T11:03:25;5.50;1.00
9760;DHT22;4919;48.792;9.202;2023-02-28T11:06:17;5.70;1.00
9760;DHT22;4919;48.792;9.202;2023-02-28T11:09:22;6.40;1.00
9760;DHT22;4919;48.792;9.202;2023-02-28T11:12:26;6.30;1.00
9760;DHT22;4919;48.792;9.202;2023-02-28T11:18:24;7.00;1.00
9760;DHT22;4919;48.792;9.202;2023-02-28T11:21:21;7.00;1.00
9760;DHT22;4919;48.792;9.202;2023-02-28T11:24:19;7.40;1.00
9760;DHT22;4919;48.792;9.202;2023-02-28T11:27:05;7.10;1.00
9760;DHT22;4919;48.792;9.202;2023-02-28T11:29:50;7.10;1.00
9760;DHT22;4919;48.792;9.202;2023-02-28T11:32:35;6.30;1.00
9760;DHT22;4919;48.792;9.202;2023-02-28T11:35:28;6.70;1.00
9760;DHT22;4919;48.792;9.202;2023-02-28T11:38:14;6.50;1.00
9760;DHT22;4919;48.792;9.202;2023-02-28T11:47:48;6.10;1.00
9760;DHT22;4919;48.792;9.202;2023-02-28T11:50:53;5.80;1.00
9760;DHT22;4919;48.792;9.202;2023-02-28T11:56:50;5.80;1.00
9760;DHT22;4919;48.792;9.202;2023-02-28T11:59:51;5.80;1.00
9760;DHT22;4919;48.792;9.202;2023-02-28T12:05:54;5.30;1.00
9760;DHT22;4919;48.792;9.202;2023-02-28T12:08:53;5.50;1.00
9760;DHT22;4919;48.792;9.202;2023-02-28T12:11:57;5.70;1.00
9760;DHT22;4919;48.792;9.202;2023-02-28T12:15:16;5.20;1.00
9760;DHT22;4919;48.792;9.202;2023-02-28T12:18:23;5.30;1.00
9760;DHT22;4919;48.792;9.202;2023-02-28T12:24:33;5.50;1.00
9760;DHT22;4919;48.792;9.202;2023-02-28T12:27:27;5.90;1.00
9760;DHT22;4919;48.792;9.202;2023-02-28T12:30:28;5.80;1.00
9760;DHT22;4919;48.792;9.202;2023-02-28T12:33:16;5.40;1.00
9760;DHT22;4919;48.792;9.202;2023-02-28T12:36:08;5.20;1.00
9760;DHT22;4919;48.792;9.202;2023-02-28T12:39:00;5.30;1.00
9760;DHT22;4919;48.792;9.202;2023-02-28T12:41:56;5.40;1.00
9760;DHT22;4919;48.792;9.202;2023-02-28T12:44:51;5.40;1.00
9760;DHT22;4919;48.792;9.202;2023-02-28T12:47:38;5.50;1.00
9760;DHT22;4919;48.792;9.202;2023-02-28T12:50:25;5.70;1.00
9760;DHT22;4919;48.792;9.202;2023-02-28T12:53:18;5.50;1.00
9760;DHT22;4919;48.792;9.202;2023-02-28T12:56:23;5.60;1.00
9760;DHT22;4919;48.792;9.202;2023-02-28T12:59:45;5.50;1.00
9760;DHT22;4919;48.792;9.202;2023-02-28T13:11:51;5.30;1.00
9760;DHT22;4919;48.792;9.202;2023-02-28T13:14:37;5.40;1.00
9760;DHT22;4919;48.792;9.202;2023-02-28T13:17:24;5.50;1.00
9760;DHT22;4919;48.792;9.202;2023-02-28T13:20:39;5.60;1.00
9760;DHT22;4919;48.792;9.202;2023-02-28T13:29:32;5.50;1.00
9760;DHT22;4919;48.792;9.202;2023-02-28T13:32:34;5.50;1.00
9760;DHT22;4919;48.792;9.202;2023-02-28T13:35:36;5.70;1.00
9760;DHT22;4919;48.792;9.202;2023-02-28T13:38:33;5.70;1.00
9760;DHT22;4919;48.792;9.202;2023-02-28T13:44:20;5.80;1.00
9760;DHT22;4919;48.792;9.202;2023-02-28T13:49:51;5.60;1.00
9760;DHT22;4919;48.792;9.202;2023-02-28T13:59:06;5.50;1.00
9760;DHT22;4919;48.792;9.202;2023-02-28T14:02:12;5.60;1.00
9760;DHT22;4919;48.792;9.202;2023-02-28T14:05:15;5.60;1.00
9760;DHT22;4919;48.792;9.202;2023-02-28T14:08:20;5.50;1.00
9760;DHT22;4919;48.792;9.202;2023-02-28T14:11:15;5.50;1.00
9760;DHT22;4919;48.792;9.202;2023-02-28T14:14:10;5.50;1.00
9760;DHT22;4919;48.792;9.202;2023-02-28T14:17:15;5.50;1.00
9760;DHT22;4919;48.792;9.202;2023-02-28T14:20:01;5.40;1.00
9760;DHT22;4919;48.792;9.202;2023-02-28T14:22:57;5.50;1.00
9760;DHT22;4919;48.792;9.202;2023-02-28T14:25:59;5.60;1.00
9760;DHT22;4919;48.792;9.202;2023-02-28T14:38:26;5.60;1.00
9760;DHT22;4919;48.792;9.202;2023-02-28T14:41:35;5.50;1.00
9760;DHT22;4919;48.792;9.202;2023-02-28T14:44:22;5.30;1.00
9760;DHT22;4919;48.792;9.202;2023-02-28T14:47:14;5.30;1.00
9760;DHT22;4919;48.792;9.202;2023-02-28T14:50:01;5.30;1.00
9760;DHT22;4919;48.792;9.202;2023-02-28T14:52:49;5.30;1.00
9760;DHT22;4919;48.792;9.202;2023-02-28T14:55:36;5.20;1.00
9760;DHT22;4919;48.792;9.202;2023-02-28T14:58:25;5.10;1.00
9760;DHT22;4919;48.792;9.202;2023-02-28T15:01:10;5.10;1.00
9760;DHT22;4919;48.792;9.202;2023-02-28T15:04:04;5.20;1.00
9760;DHT22;4919;48.792;9.202;2023-02-28T15:07:22;5.10;1.00
9760;DHT22;4919;48.792;9.202;2023-02-28T15:10:27;5.00;1.00
9760;DHT22;4919;48.792;9.202;2023-02-28T15:13:14;5.00;1.00
9760;DHT22;4919;48.792;9.202;2023-02-28T15:16:02;5.10;1.00
9760;DHT22;4919;48.792;9.202;2023-02-28T15:18:50;5.00;1.00
9760;DHT22;4919;48.792;9.202;2023-02-28T15:21:44;5.00;1.00
9760;DHT22;4919;48.792;9.202;2023-02-28T15:27:29;5.00;1.00
9760;DHT22;4919;48.792;9.202;2023-02-28T15:30:21;4.90;1.00
9760;DHT22;4919;48.792;9.202;2023-02-28T15:36:16;4.90;1.00
9760;DHT22;4919;48.792;9.202;2023-02-28T15:39:18;4.80;1.00
9760;DHT22;4919;48.792;9.202;2023-02-28T15:42:18;4.80;1.00
9760;DHT22;4919;48.792;9.202;2023-02-28T15:45:03;4.80;1.00
9760;DHT22;4919;48.792;9.202;2023-02-28T15:47:48;4.70;1.00
9760;DHT22;4919;48.792;9.202;2023-02-28T15:50:32;4.70;1.00
9760;DHT22;4919;48.792;9.202;2023-02-28T15:53:27;4.60;1.00
9760;DHT22;4919;48.792;9.202;2023-02-28T15:56:24;4.50;1.00
9760;DHT22;4919;48.792;9.202;2023-02-28T15:59:32;4.40;1.00
9760;DHT22;4919;48.792;9.202;2023-02-28T16:02:20;4.40;1.00
9760;DHT22;4919;48.792;9.202;2023-02-28T16:07:55;4.20;1.00
9760;DHT22;4919;48.792;9.202;2023-02-28T16:10:40;4.20;1.00
9760;DHT22;4919;48.792;9.202;2023-02-28T16:13:25;4.10;1.00
9760;DHT22;4919;48.792;9.202;2023-02-28T16:16:18;4.00;1.00
9760;DHT22;4919;48.792;9.202;2023-02-28T16:19:03;3.90;1.00
9760;DHT22;4919;48.792;9.202;2023-02-28T16:21:48;3.90;1.00
9760;DHT22;4919;48.792;9.202;2023-02-28T16:24:33;3.80;1.00
9760;DHT22;4919;48.792;9.202;2023-02-28T16:27:24;3.70;1.00
9760;DHT22;4919;48.792;9.202;2023-02-28T16:30:22;3.70;1.00
9760;DHT22;4919;48.792;9.202;2023-02-28T16:33:08;3.60;1.00
9760;DHT22;4919;48.792;9.202;2023-02-28T16:35:53;3.50;1.00
9760;DHT22;4919;48.792;9.202;2023-02-28T16:38:38;3.40;1.00
9760;DHT22;4919;48.792;9.202;2023-02-28T16:41:25;3.30;1.00
9760;DHT22;4919;48.792;9.202;2023-02-28T16:44:17;3.20;1.00
9760;DHT22;4919;48.792;9.202;2023-02-28T16:47:05;3.10;1.00
9760;DHT22;4919;48.792;9.202;2023-02-28T16:49:50;3.00;1.00
9760;DHT22;4919;48.792;9.202;2023-02-28T16:52:35;2.80;1.00
9760;DHT22;4919;48.792;9.202;2023-02-28T16:55:20;2.70;1.00
9760;DHT22;4919;48.792;9.202;2023-02-28T16:58:05;2.50;1.00
9760;DHT22;4919;48.792;9.202;2023-02-28T17:00:50;2.40;1.00
9760;DHT22;4919;48.792;9.202;2023-02-28T17:03:35;2.30;1.00
9760;DHT22;4919;48.792;9.202;2023-02-28T17:06:22;2.10;1.00
9760;DHT22;4919;48.792;9.202;2023-02-28T17:09:15;2.10;1.00
9760;DHT22;4919;48.792;9.202;2023-02-28T17:12:00;1.90;1.00
9760;DHT22;4919;48.792;9.202;2023-02-28T17:14:45;1.80;1.00
9760;DHT22;4919;48.792;9.202;2023-02-28T17:17:30;1.70;1.00
9760;DHT22;4919;48.792;9.202;2023-02-28T17:20:19;1.60;1.00
9760;DHT22;4919;48.792;9.202;2023-02-28T17:23:04;1.50;1.00
9760;DHT22;4919;48.792;9.202;2023-02-28T17:25:49;1.40;1.00
9760;DHT22;4919;48.792;9.202;2023-02-28T17:28:34;1.30;1.00
9760;DHT22;4919;48.792;9.202;2023-02-28T17:31:19;1.20;1.00
9760;DHT22;4919;48.792;9.202;2023-02-28T17:34:04;1.10;1.00
9760;DHT22;4919;48.792;9.202;2023-02-28T17:36:50;1.00;1.00
9760;DHT22;4919;48.792;9.202;2023-02-28T17:39:35;1.00;1.00
9760;DHT22;4919;48.792;9.202;2023-02-28T17:42:20;0.90;1.00
9760;DHT22;4919;48.792;9.202;2023-02-28T17:45:05;0.80;1.00
9760;DHT22;4919;48.792;9.202;2023-02-28T17:47:50;0.70;1.00
9760;DHT22;4919;48.792;9.202;2023-02-28T17:50:35;0.70;1.00
9760;DHT22;4919;48.792;9.202;2023-02-28T17:53:20;0.60;1.00
9760;DHT22;4919;48.792;9.202;2023-02-28T17:56:05;0.50;1.00
9760;DHT22;4919;48.792;9.202;2023-02-28T17:58:52;0.50;1.00
9760;DHT22;4919;48.792;9.202;2023-02-28T18:01:38;0.40;1.00
9760;DHT22;4919;48.792;9.202;2023-02-28T18:04:22;0.30;1.00
9760;DHT22;4919;48.792;9.202;2023-02-28T18:07:10;0.30;1.00
9760;DHT22;4919;48.792;9.202;2023-02-28T18:09:55;0.20;1.00
9760;DHT22;4919;48.792;9.202;2023-02-28T18:12:40;0.20;1.00
9760;DHT22;4919;48.792;9.202;2023-02-28T18:15:25;0.10;1.00
9760;DHT22;4919;48.792;9.202;2023-02-28T18:18:09;0.00;1.00
9760;DHT22;4919;48.792;9.202;2023-02-28T18:20:54;0.00;1.00
9760;DHT22;4919;48.792;9.202;2023-02-28T18:23:40;-0.10;1.00
9760;DHT22;4919;48.792;9.202;2023-02-28T18:26:25;-0.20;1.00
9760;DHT22;4919;48.792;9.202;2023-02-28T18:29:17;-0.20;1.00
9760;DHT22;4919;48.792;9.202;2023-02-28T18:32:01;-0.20;1.00
9760;DHT22;4919;48.792;9.202;2023-02-28T18:34:46;-0.20;1.00
9760;DHT22;4919;48.792;9.202;2023-02-28T18:37:31;-0.30;1.00
9760;DHT22;4919;48.792;9.202;2023-02-28T18:40:16;-0.40;1.00
9760;DHT22;4919;48.792;9.202;2023-02-28T18:43:02;-0.40;1.00
9760;DHT22;4919;48.792;9.202;2023-02-28T18:45:46;-0.40;1.00
9760;DHT22;4919;48.792;9.202;2023-02-28T18:48:32;-0.50;1.00
9760;DHT22;4919;48.792;9.202;2023-02-28T18:51:19;-0.50;1.00
9760;DHT22;4919;48.792;9.202;2023-02-28T18:54:04;-0.60;1.00
9760;DHT22;4919;48.792;9.202;2023-02-28T18:56:49;-0.60;1.00
9760;DHT22;4919;48.792;9.202;2023-02-28T18:59:34;-0.70;1.00
9760;DHT22;4919;48.792;9.202;2023-02-28T19:02:19;-0.70;1.00
9760;DHT22;4919;48.792;9.202;2023-02-28T19:05:04;-0.70;1.00
9760;DHT22;4919;48.792;9.202;2023-02-28T19:07:49;-0.70;1.00
9760;DHT22;4919;48.792;9.202;2023-02-28T19:10:33;-0.80;1.00
9760;DHT22;4919;48.792;9.202;2023-02-28T19:13:18;-0.80;1.00
9760;DHT22;4919;48.792;9.202;2023-02-28T19:16:05;-0.80;1.00
9760;DHT22;4919;48.792;9.202;2023-02-28T19:18:50;-0.80;1.00
9760;DHT22;4919;48.792;9.202;2023-02-28T19:21:35;-0.80;1.00
9760;DHT22;4919;48.792;9.202;2023-02-28T19:24:20;-0.90;1.00
9760;DHT22;4919;48.792;9.202;2023-02-28T19:27:05;-0.90;1.00
9760;DHT22;4919;48.792;9.202;2023-02-28T19:29:51;-0.90;1.00
9760;DHT22;4919;48.792;9.202;2023-02-28T19:32:36;-0.90;1.00
9760;DHT22;4919;48.792;9.202;2023-02-28T19:35:21;-1.00;1.00
9760;DHT22;4919;48.792;9.202;2023-02-28T19:38:06;-0.90;1.00
9760;DHT22;4919;48.792;9.202;2023-02-28T19:41:02;-1.00;1.00
9760;DHT22;4919;48.792;9.202;2023-02-28T19:43:47;-1.00;1.00
9760;DHT22;4919;48.792;9.202;2023-02-28T19:46:31;-1.00;1.00
9760;DHT22;4919;48.792;9.202;2023-02-28T19:49:16;-1.00;1.00
9760;DHT22;4919;48.792;9.202;2023-02-28T19:52:02;-1.10;1.00
9760;DHT22;4919;48.792;9.202;2023-02-28T19:54:47;-1.10;1.00
9760;DHT22;4919;48.792;9.202;2023-02-28T19:57:32;-1.10;1.00
9760;DHT22;4919;48.792;9.202;2023-02-28T20:00:17;-1.10;1.00
9760;DHT22;4919;48.792;9.202;2023-02-28T20:03:02;-1.20;1.00
9760;DHT22;4919;48.792;9.202;2023-02-28T20:05:47;-1.10;1.00
9760;DHT22;4919;48.792;9.202;2023-02-28T20:08:42;-1.10;1.00
9760;DHT22;4919;48.792;9.202;2023-02-28T20:11:26;-1.20;1.00
9760;DHT22;4919;48.792;9.202;2023-02-28T20:14:12;-1.10;1.00
9760;DHT22;4919;48.792;9.202;2023-02-28T20:16:57;-1.20;1.00
9760;DHT22;4919;48.792;9.202;2023-02-28T20:19:42;-1.30;1.00
9760;DHT22;4919;48.792;9.202;2023-02-28T20:22:27;-1.30;1.00
9760;DHT22;4919;48.792;9.202;2023-02-28T20:25:12;-1.30;1.00
9760;DHT22;4919;48.792;9.202;2023-02-28T20:27:57;-1.30;1.00
9760;DHT22;4919;48.792;9.202;2023-02-28T20:30:42;-1.30;1.00
9760;DHT22;4919;48.792;9.202;2023-02-28T20:33:27;-1.30;1.00
9760;DHT22;4919;48.792;9.202;2023-02-28T20:36:12;-1.50;1.00
9760;DHT22;4919;48.792;9.202;2023-02-28T20:38:57;-1.40;1.00
9760;DHT22;4919;48.792;9.202;2023-02-28T20:41:42;-1.40;1.00
9760;DHT22;4919;48.792;9.202;2023-02-28T20:44:26;-1.40;1.00